createdAt,value
2018-08-12T00:00:35.315Z,24.5
2018-08-12T00:01:35.535Z,24.5
2018-08-12T00:02:35.267Z,24.5
2018-08-12T00:03:35.318Z,24.5
2018-08-12T00:04:35.366Z,24.5
2018-08-12T00:05:35.539Z,24.5
2018-08-12T00:06:35.490Z,24.5
2018-08-12T00:07:35.343Z,24.5
2018-08-12T00:08:35.455Z,24.5
2018-08-12T00:09:35.434Z,24.5
2018-08-12T00:10:35.401Z,24.5
2018-08-12T00:11:35.515Z,24.5
2018-08-12T00:12:35.426Z,24.5
2018-08-12T00:13:35.373Z,24.5
2018-08-12T00:14:35.342Z,24.5
2018-08-12T00:15:35.449Z,24.5
2018-08-12T00:16:35.377Z,24.5
2018-08-12T00:17:35.276Z,24.5
2018-08-12T00:18:35.547Z,24.5
2018-08-12T00:19:35.366Z,24.5
2018-08-12T00:20:35.530Z,24.5
2018-08-12T00:21:35.725Z,24.5
2018-08-12T00:22:35.431Z,24.5
2018-08-12T00:23:35.296Z,24.5
2018-08-12T00:24:35.462Z,24.5
2018-08-12T00:25:35.270Z,24.5
2018-08-12T00:26:35.361Z,24.5
2018-08-12T00:27:35.407Z,24.5
2018-08-12T00:28:35.465Z,24.5
2018-08-12T00:29:35.567Z,24.5
2018-08-12T00:30:35.644Z,24.5
2018-08-12T00:31:35.459Z,24.5
2018-08-12T00:32:35.370Z,24.5
2018-08-12T00:33:35.448Z,24.5
2018-08-12T00:34:35.412Z,24.5
2018-08-12T00:35:35.674Z,24.5
2018-08-12T00:36:35.667Z,24.5
2018-08-12T00:37:35.437Z,24.5
2018-08-12T00:38:35.476Z,24.5
2018-08-12T00:39:35.381Z,24.5
2018-08-12T00:40:35.386Z,24.5
2018-08-12T00:41:35.301Z,24.5
2018-08-12T00:42:35.660Z,24.5
2018-08-12T00:43:35.477Z,24.5
2018-08-12T00:44:35.530Z,24.5
2018-08-12T00:45:35.376Z,24.5
2018-08-12T00:46:35.438Z,24.5
2018-08-12T00:47:35.570Z,24.5
2018-08-12T00:48:35.697Z,24.5
2018-08-12T00:49:35.380Z,24.5
2018-08-12T00:50:35.318Z,24.5
2018-08-12T00:51:35.371Z,24.5
2018-08-12T00:52:35.473Z,24.5
2018-08-12T00:53:35.489Z,24.5
2018-08-12T00:54:35.459Z,24.5
2018-08-12T00:55:35.263Z,24.5
2018-08-12T00:56:35.430Z,24.5
2018-08-12T00:57:35.482Z,24.5
2018-08-12T00:58:35.297Z,24.5
2018-08-12T00:59:35.224Z,24.5
2018-08-12T01:00:35.893Z,24.5
2018-08-12T01:01:35.557Z,24.5
2018-08-12T01:02:35.410Z,24.5
2018-08-12T01:03:35.317Z,24.5
2018-08-12T01:04:35.425Z,24.5
2018-08-12T01:05:35.274Z,24.5
2018-08-12T01:06:35.418Z,24.5
2018-08-12T01:07:35.404Z,24.5
2018-08-12T01:08:35.406Z,24.5
2018-08-12T01:09:35.472Z,24.5
2018-08-12T01:10:35.389Z,24.5
2018-08-12T01:11:35.725Z,24.5
2018-08-12T01:12:35.229Z,24.5
2018-08-12T01:13:35.626Z,24.5
2018-08-12T01:14:35.547Z,24.5
2018-08-12T01:15:35.762Z,24.5
2018-08-12T01:16:35.501Z,24.5
2018-08-12T01:17:35.282Z,24.5
2018-08-12T01:18:35.419Z,24.5
2018-08-12T01:19:35.476Z,24.5
2018-08-12T01:20:35.385Z,24.5
2018-08-12T01:21:35.421Z,24.5
2018-08-12T01:22:35.524Z,24.5
2018-08-12T01:23:35.566Z,24.5
2018-08-12T01:24:35.389Z,24.5
2018-08-12T01:25:35.346Z,24.5
2018-08-12T01:26:35.284Z,24.5
2018-08-12T01:27:35.340Z,24.5
2018-08-12T01:28:35.336Z,24.5
2018-08-12T01:29:35.423Z,24.5
2018-08-12T01:30:35.370Z,24.5
2018-08-12T01:31:35.332Z,24.5
2018-08-12T01:32:35.557Z,24.5
2018-08-12T01:33:35.427Z,24.5
2018-08-12T01:34:35.487Z,24.5
2018-08-12T01:35:35.261Z,24.5
2018-08-12T01:36:35.335Z,24.5
2018-08-12T01:37:35.379Z,24.5
2018-08-12T01:38:35.726Z,24.5
2018-08-12T01:39:35.366Z,24.5
2018-08-12T01:40:35.405Z,24.5
2018-08-12T01:41:35.752Z,24.5
2018-08-12T01:42:35.376Z,24.5
2018-08-12T01:43:35.346Z,24.5
2018-08-12T01:44:35.238Z,24.5
2018-08-12T01:45:35.623Z,24.5
2018-08-12T01:46:35.770Z,24.5
2018-08-12T01:47:35.434Z,24.5
2018-08-12T01:48:35.765Z,24.5
2018-08-12T01:49:35.618Z,24.5
2018-08-12T01:50:35.546Z,24.5
2018-08-12T01:51:35.870Z,24.5
2018-08-12T01:52:35.370Z,24.5
2018-08-12T01:53:35.552Z,24.5
2018-08-12T01:54:35.342Z,24.5
2018-08-12T01:55:35.312Z,24.5
2018-08-12T01:56:35.587Z,24.5
2018-08-12T01:57:35.441Z,24.5
2018-08-12T01:58:35.555Z,24.5
2018-08-12T01:59:35.341Z,24.5
2018-08-12T02:00:35.376Z,24.5
2018-08-12T02:01:35.363Z,24.5
2018-08-12T02:02:35.230Z,24.5
2018-08-12T02:03:35.264Z,24.5
2018-08-12T02:04:35.497Z,24.5
2018-08-12T02:05:35.523Z,24.5
2018-08-12T02:06:35.347Z,24.5
2018-08-12T02:07:35.550Z,24.5
2018-08-12T02:08:35.514Z,24.5
2018-08-12T02:09:35.475Z,24.5
2018-08-12T02:10:35.351Z,24.5
2018-08-12T02:11:35.299Z,24.5
2018-08-12T02:12:35.243Z,24.5
2018-08-12T02:13:35.676Z,24.5
2018-08-12T02:14:35.489Z,24.5
2018-08-12T02:15:35.599Z,24.5
2018-08-12T02:16:35.392Z,24.5
2018-08-12T02:17:35.506Z,24.5
2018-08-12T02:18:35.297Z,24.5
2018-08-12T02:19:35.458Z,24.5
2018-08-12T02:20:35.393Z,24.5
2018-08-12T02:21:35.281Z,24.5
2018-08-12T02:22:35.491Z,24.5
2018-08-12T02:23:35.404Z,24.5
2018-08-12T02:24:35.455Z,24.5
2018-08-12T02:25:35.710Z,24.5
2018-08-12T02:26:35.424Z,24.5
2018-08-12T02:27:35.406Z,24.5
2018-08-12T02:28:35.614Z,24.5
2018-08-12T02:29:35.316Z,24.5
2018-08-12T02:30:35.353Z,24.5
2018-08-12T02:31:35.492Z,24.5
2018-08-12T02:32:35.416Z,24.5
2018-08-12T02:33:35.473Z,24.5
2018-08-12T02:34:35.383Z,24.5
2018-08-12T02:35:35.417Z,24.5
2018-08-12T02:36:35.251Z,24.5
2018-08-12T02:37:35.470Z,24.5
2018-08-12T02:38:35.297Z,24.5
2018-08-12T02:39:35.323Z,24.5
2018-08-12T02:40:35.501Z,24.5
2018-08-12T02:41:35.497Z,24.5
2018-08-12T02:42:35.391Z,24.5
2018-08-12T02:43:35.524Z,24.5
2018-08-12T02:44:35.376Z,24.5
2018-08-12T02:45:35.281Z,24.5
2018-08-12T02:46:35.283Z,24.5
2018-08-12T02:47:35.278Z,24.5
2018-08-12T02:48:35.538Z,24.5
2018-08-12T02:49:35.341Z,24.25
2018-08-12T02:50:35.540Z,24.5
2018-08-12T02:51:35.361Z,24.5
2018-08-12T02:52:35.379Z,24.5
2018-08-12T02:53:35.342Z,24.5
2018-08-12T02:54:35.449Z,24.5
2018-08-12T02:55:35.393Z,24.5
2018-08-12T02:56:35.281Z,24.25
2018-08-12T02:57:35.371Z,24.5
2018-08-12T02:58:35.278Z,24.5
2018-08-12T02:59:35.487Z,24.5
2018-08-12T03:00:35.433Z,24.5
2018-08-12T03:01:35.429Z,24.5
2018-08-12T03:02:35.537Z,24.5
2018-08-12T03:03:35.585Z,24.5
2018-08-12T03:04:35.405Z,24.5
2018-08-12T03:05:35.160Z,24.5
2018-08-12T03:06:35.248Z,24.25
2018-08-12T03:07:35.514Z,24.5
2018-08-12T03:08:35.526Z,24.5
2018-08-12T03:09:35.350Z,24.5
2018-08-12T03:10:35.296Z,24.5
2018-08-12T03:11:35.436Z,24.5
2018-08-12T03:12:35.544Z,24.5
2018-08-12T03:13:35.274Z,24.5
2018-08-12T03:14:35.245Z,24.25
2018-08-12T03:15:35.521Z,24.25
2018-08-12T03:16:35.499Z,24.25
2018-08-12T03:17:35.530Z,24.25
2018-08-12T03:18:35.415Z,24.5
2018-08-12T03:19:35.484Z,24.25
2018-08-12T03:20:35.546Z,24.25
2018-08-12T03:21:35.388Z,24.25
2018-08-12T03:22:35.999Z,24.25
2018-08-12T03:23:35.314Z,24.5
2018-08-12T03:24:35.423Z,24.25
2018-08-12T03:25:35.361Z,24.5
2018-08-12T03:26:35.496Z,24.5
2018-08-12T03:27:35.238Z,24.25
2018-08-12T03:28:35.298Z,24.25
2018-08-12T03:29:35.455Z,24.25
2018-08-12T03:30:35.528Z,24.25
2018-08-12T03:31:35.442Z,24.25
2018-08-12T03:32:35.228Z,24.25
2018-08-12T03:33:35.289Z,24.25
2018-08-12T03:34:35.566Z,24.25
2018-08-12T03:35:35.379Z,24.5
2018-08-12T03:36:35.431Z,24.25
2018-08-12T03:37:35.329Z,24.25
2018-08-12T03:38:35.409Z,24.25
2018-08-12T03:39:35.433Z,24.5
2018-08-12T03:40:35.423Z,24.25
2018-08-12T03:41:35.339Z,24.25
2018-08-12T03:42:35.254Z,24.25
2018-08-12T03:43:35.395Z,24.25
2018-08-12T03:44:35.391Z,24.25
2018-08-12T03:45:35.800Z,24.25
2018-08-12T03:46:35.527Z,24.25
2018-08-12T03:47:35.495Z,24.25
2018-08-12T03:48:35.446Z,24.25
2018-08-12T03:49:35.431Z,24.25
2018-08-12T03:50:35.352Z,24.25
2018-08-12T03:51:35.358Z,24.25
2018-08-12T03:52:35.409Z,24.25
2018-08-12T03:53:35.369Z,24.25
2018-08-12T03:54:35.315Z,24.25
2018-08-12T03:55:35.248Z,24.25
2018-08-12T03:56:35.442Z,24.25
2018-08-12T03:57:35.350Z,24.25
2018-08-12T03:58:35.250Z,24.25
2018-08-12T03:59:35.531Z,24.25
2018-08-12T04:00:35.420Z,24.25
2018-08-12T04:01:35.287Z,24.25
2018-08-12T04:02:35.379Z,24.25
2018-08-12T04:03:35.453Z,24.25
2018-08-12T04:04:35.449Z,24.25
2018-08-12T04:05:35.450Z,24.25
2018-08-12T04:06:35.554Z,24.25
2018-08-12T04:07:35.365Z,24.25
2018-08-12T04:08:35.320Z,24.25
2018-08-12T04:09:35.304Z,24.25
2018-08-12T04:10:35.226Z,24.25
2018-08-12T04:11:35.419Z,24.25
2018-08-12T04:12:35.377Z,24.25
2018-08-12T04:13:35.496Z,24.25
2018-08-12T04:14:35.482Z,24.25
2018-08-12T04:15:35.397Z,24.25
2018-08-12T04:16:35.449Z,24.25
2018-08-12T04:17:35.536Z,24.25
2018-08-12T04:18:35.447Z,24.25
2018-08-12T04:19:35.234Z,24.25
2018-08-12T04:20:35.380Z,24.25
2018-08-12T04:21:35.232Z,24.25
2018-08-12T04:22:35.211Z,24.25
2018-08-12T04:23:35.411Z,24.25
2018-08-12T04:24:35.273Z,24.25
2018-08-12T04:25:35.316Z,24.25
2018-08-12T04:26:35.424Z,24.25
2018-08-12T04:27:35.385Z,24.25
2018-08-12T04:28:35.406Z,24.25
2018-08-12T04:29:35.561Z,24.25
2018-08-12T04:30:35.308Z,24.25
2018-08-12T04:31:35.404Z,24.25
2018-08-12T04:32:35.263Z,24.25
2018-08-12T04:33:35.267Z,24.25
2018-08-12T04:34:35.377Z,24.25
2018-08-12T04:35:35.345Z,24.25
2018-08-12T04:36:35.335Z,24.25
2018-08-12T04:37:35.316Z,24.25
2018-08-12T04:38:35.466Z,24.25
2018-08-12T04:39:35.340Z,24.25
2018-08-12T04:40:35.269Z,24.25
2018-08-12T04:41:35.470Z,23.75
2018-08-12T04:42:35.497Z,23.5
2018-08-12T04:43:35.222Z,23.25
2018-08-12T04:44:35.460Z,23
2018-08-12T04:45:35.428Z,22.75
2018-08-12T04:46:35.485Z,22.75
2018-08-12T04:47:35.653Z,22.5
2018-08-12T04:48:35.196Z,22.25
2018-08-12T04:49:35.419Z,22.25
2018-08-12T04:50:35.371Z,22.25
2018-08-12T04:51:35.413Z,22
2018-08-12T04:52:35.639Z,21.75
2018-08-12T04:53:35.226Z,21.75
2018-08-12T04:54:35.494Z,21.75
2018-08-12T04:55:35.531Z,21.75
2018-08-12T04:56:35.364Z,21.75
2018-08-12T04:57:35.441Z,21.5
2018-08-12T04:58:35.450Z,21.5
2018-08-12T04:59:35.360Z,21.5
2018-08-12T05:00:35.319Z,21.5
2018-08-12T05:01:35.433Z,21.25
2018-08-12T05:02:35.195Z,21.25
2018-08-12T05:03:35.323Z,21
2018-08-12T05:04:35.502Z,21
2018-08-12T05:05:35.370Z,21
2018-08-12T05:06:35.183Z,21
2018-08-12T05:07:35.348Z,21
2018-08-12T05:08:35.415Z,21
2018-08-12T05:09:35.293Z,21
2018-08-12T05:10:35.382Z,21
2018-08-12T05:11:35.634Z,21
2018-08-12T05:12:35.358Z,20.75
2018-08-12T05:13:35.269Z,20.75
2018-08-12T05:14:35.292Z,20.75
2018-08-12T05:15:35.306Z,20.75
2018-08-12T05:16:35.393Z,20.75
2018-08-12T05:17:35.222Z,20.75
2018-08-12T05:18:35.413Z,20.75
2018-08-12T05:19:35.245Z,20.75
2018-08-12T05:20:35.306Z,20.75
2018-08-12T05:21:35.325Z,20.75
2018-08-12T05:22:35.304Z,20.75
2018-08-12T05:23:35.355Z,20.75
2018-08-12T05:24:35.230Z,20.75
2018-08-12T05:25:35.493Z,20.75
2018-08-12T05:26:35.376Z,20.75
2018-08-12T05:27:35.245Z,20.75
2018-08-12T05:28:35.490Z,20.75
2018-08-12T05:29:35.178Z,20.75
2018-08-12T05:30:35.340Z,20.75
2018-08-12T05:31:35.382Z,20.75
2018-08-12T05:32:35.374Z,20.75
2018-08-12T05:33:35.208Z,20.75
2018-08-12T05:34:35.257Z,20.75
2018-08-12T05:35:35.516Z,20.75
2018-08-12T05:36:35.380Z,20.75
2018-08-12T05:37:35.405Z,20.75
2018-08-12T05:38:35.419Z,20.75
2018-08-12T05:39:35.241Z,20.75
2018-08-12T05:40:35.380Z,20.75
2018-08-12T05:41:35.361Z,20.75
2018-08-12T05:42:35.191Z,20.75
2018-08-12T05:43:35.419Z,20.75
2018-08-12T05:44:35.447Z,20.75
2018-08-12T05:45:35.371Z,20.75
2018-08-12T05:46:35.302Z,20.75
2018-08-12T05:47:35.396Z,20.75
2018-08-12T05:48:35.295Z,20.75
2018-08-12T05:49:35.325Z,20.75
2018-08-12T05:50:35.200Z,20.75
2018-08-12T05:51:36.069Z,20.75
2018-08-12T05:52:35.340Z,20.75
2018-08-12T05:53:35.276Z,20.75
2018-08-12T05:54:35.312Z,20.75
2018-08-12T05:55:35.299Z,20.75
2018-08-12T05:56:35.524Z,20.75
2018-08-12T05:57:35.325Z,20.75
2018-08-12T05:58:35.290Z,20.75
2018-08-12T05:59:35.453Z,20.75
2018-08-12T06:00:35.283Z,20.75
2018-08-12T06:01:35.398Z,20.75
2018-08-12T06:02:35.705Z,20.75
2018-08-12T06:03:35.523Z,20.75
2018-08-12T06:04:35.267Z,20.75
2018-08-12T06:05:36.351Z,20.75
2018-08-12T06:06:35.454Z,20.75
2018-08-12T06:07:35.319Z,20.75
2018-08-12T06:08:35.360Z,20.75
2018-08-12T06:09:35.318Z,21
2018-08-12T06:10:35.346Z,21
2018-08-12T06:11:35.329Z,21
2018-08-12T06:12:35.307Z,21
2018-08-12T06:13:35.388Z,21
2018-08-12T06:14:35.522Z,21
2018-08-12T06:15:35.574Z,21
2018-08-12T06:16:35.688Z,21
2018-08-12T06:17:35.355Z,21.25
2018-08-12T06:18:35.360Z,21
2018-08-12T06:19:35.450Z,21.25
2018-08-12T06:20:35.305Z,21.25
2018-08-12T06:21:35.109Z,21.25
2018-08-12T06:22:35.477Z,21.25
2018-08-12T06:23:35.438Z,21.25
2018-08-12T06:24:35.547Z,21.25
2018-08-12T06:25:35.342Z,21.25
2018-08-12T06:26:35.257Z,21.25
2018-08-12T06:27:35.238Z,21.25
2018-08-12T06:28:35.436Z,21.25
2018-08-12T06:29:35.249Z,21.25
2018-08-12T06:30:35.129Z,21.25
2018-08-12T06:31:35.747Z,21.25
2018-08-12T06:32:35.356Z,21.25
2018-08-12T06:33:35.252Z,21.25
2018-08-12T06:34:35.308Z,21.25
2018-08-12T06:35:35.421Z,21.25
2018-08-12T06:36:35.206Z,21.25
2018-08-12T06:37:35.383Z,21.25
2018-08-12T06:38:35.228Z,21.5
2018-08-12T06:39:35.238Z,21.5
2018-08-12T06:40:35.438Z,21.5
2018-08-12T06:41:35.306Z,21.5
2018-08-12T06:42:35.315Z,21.5
2018-08-12T06:43:35.467Z,21.5
2018-08-12T06:44:35.298Z,21.5
2018-08-12T06:45:35.495Z,21.5
2018-08-12T06:46:35.273Z,21.5
2018-08-12T06:47:35.342Z,21.5
2018-08-12T06:48:35.200Z,21.5
2018-08-12T06:49:35.366Z,21.5
2018-08-12T06:50:35.190Z,21.5
2018-08-12T06:51:35.397Z,21.5
2018-08-12T06:52:35.328Z,21.5
2018-08-12T06:53:35.470Z,21.5
2018-08-12T06:54:35.285Z,21.5
2018-08-12T06:55:35.240Z,21.5
2018-08-12T06:56:35.268Z,21.5
2018-08-12T06:57:36.100Z,21.75
2018-08-12T06:58:35.223Z,21.75
2018-08-12T06:59:35.170Z,21.75
2018-08-12T07:00:35.736Z,21.75
2018-08-12T07:01:35.345Z,21.75
2018-08-12T07:02:35.421Z,21.75
2018-08-12T07:03:35.432Z,21.75
2018-08-12T07:04:35.471Z,21.75
2018-08-12T07:05:35.379Z,21.75
2018-08-12T07:06:35.204Z,21.75
2018-08-12T07:07:35.471Z,21.75
2018-08-12T07:08:35.441Z,21.75
2018-08-12T07:09:35.399Z,21.75
2018-08-12T07:10:35.446Z,21.75
2018-08-12T07:11:35.286Z,21.75
2018-08-12T07:12:35.293Z,21.75
2018-08-12T07:13:35.206Z,21.75
2018-08-12T07:14:35.372Z,21.75
2018-08-12T07:15:35.326Z,21.75
2018-08-12T07:16:35.175Z,21.75
2018-08-12T07:17:35.463Z,21.75
2018-08-12T07:18:35.452Z,21.75
2018-08-12T07:19:35.184Z,21.75
2018-08-12T07:20:35.468Z,21.75
2018-08-12T07:21:35.208Z,21.75
2018-08-12T07:22:35.397Z,21.75
2018-08-12T07:23:35.236Z,21.75
2018-08-12T07:24:35.250Z,21.75
2018-08-12T07:25:35.236Z,21.75
2018-08-12T07:26:35.177Z,21.75
2018-08-12T07:27:35.282Z,21.75
2018-08-12T07:28:35.277Z,21.75
2018-08-12T07:29:35.282Z,21.75
2018-08-12T07:30:35.330Z,21.75
2018-08-12T07:31:35.338Z,21.75
2018-08-12T07:32:35.200Z,22
2018-08-12T07:33:35.221Z,22
2018-08-12T07:34:35.340Z,22
2018-08-12T07:35:35.185Z,22
2018-08-12T07:36:35.182Z,22
2018-08-12T07:37:35.169Z,22
2018-08-12T07:38:35.658Z,22
2018-08-12T07:39:35.178Z,22
2018-08-12T07:40:35.395Z,22
2018-08-12T07:41:35.202Z,22
2018-08-12T07:42:35.193Z,22
2018-08-12T07:43:35.294Z,22
2018-08-12T07:44:35.188Z,22
2018-08-12T07:45:35.403Z,22
2018-08-12T07:46:35.286Z,22
2018-08-12T07:47:35.424Z,22
2018-08-12T07:48:35.224Z,22.25
2018-08-12T07:49:35.314Z,22.25
2018-08-12T07:50:35.140Z,22.25
2018-08-12T07:51:35.117Z,22.25
2018-08-12T07:52:35.333Z,22.25
2018-08-12T07:53:35.474Z,22.25
2018-08-12T07:54:35.210Z,22.25
2018-08-12T07:55:35.811Z,22.25
2018-08-12T07:56:35.251Z,22.25
2018-08-12T07:57:35.188Z,22.25
2018-08-12T07:58:35.393Z,22.25
2018-08-12T07:59:35.161Z,22.25
2018-08-12T08:00:35.218Z,22.25
2018-08-12T08:01:35.166Z,22.25
2018-08-12T08:02:35.309Z,22.25
2018-08-12T08:03:35.321Z,22.25
2018-08-12T08:04:35.196Z,22.25
2018-08-12T08:05:35.408Z,22.25
2018-08-12T08:06:35.278Z,22.25
2018-08-12T08:07:35.237Z,22.25
2018-08-12T08:08:35.416Z,22.25
2018-08-12T08:09:35.148Z,22.25
2018-08-12T08:10:35.393Z,22.25
2018-08-12T08:11:35.275Z,22.25
2018-08-12T08:12:35.513Z,22.25
2018-08-12T08:13:35.147Z,22.25
2018-08-12T08:14:35.304Z,22.25
2018-08-12T08:15:35.286Z,22.5
2018-08-12T08:16:35.164Z,22.5
2018-08-12T08:17:35.531Z,22.5
2018-08-12T08:18:35.329Z,22.5
2018-08-12T08:19:35.355Z,22.5
2018-08-12T08:20:35.227Z,22.5
2018-08-12T08:21:35.294Z,22.5
2018-08-12T08:22:35.766Z,22.5
2018-08-12T08:23:35.333Z,22.5
2018-08-12T08:24:35.549Z,22.5
2018-08-12T08:25:36.359Z,22.5
2018-08-12T08:26:35.360Z,22.5
2018-08-12T08:27:35.259Z,22.5
2018-08-12T08:28:35.378Z,22.5
2018-08-12T08:29:35.329Z,22.5
2018-08-12T08:30:35.140Z,22.5
2018-08-12T08:31:35.917Z,22.5
2018-08-12T08:32:35.273Z,22.5
2018-08-12T08:33:35.357Z,22.5
2018-08-12T08:34:35.351Z,22.5
2018-08-12T08:35:35.227Z,22.5
2018-08-12T08:36:35.161Z,22.5
2018-08-12T08:37:35.261Z,22.5
2018-08-12T08:38:35.322Z,22.5
2018-08-12T08:39:35.200Z,22.5
2018-08-12T08:40:35.254Z,22.5
2018-08-12T08:41:35.395Z,22.75
2018-08-12T08:42:35.386Z,22.75
2018-08-12T08:43:35.310Z,22.75
2018-08-12T08:44:35.319Z,22.75
2018-08-12T08:45:35.150Z,22.75
2018-08-12T08:46:35.194Z,22.75
2018-08-12T08:47:35.502Z,22.75
2018-08-12T08:48:35.328Z,22.75
2018-08-12T08:49:35.243Z,22.75
2018-08-12T08:50:35.343Z,22.75
2018-08-12T08:51:35.171Z,22.75
2018-08-12T08:52:35.284Z,22.75
2018-08-12T08:53:35.392Z,22.75
2018-08-12T08:54:35.196Z,22.75
2018-08-12T08:55:35.545Z,22.75
2018-08-12T08:56:35.384Z,22.75
2018-08-12T08:57:35.272Z,22.75
2018-08-12T08:58:35.282Z,22.75
2018-08-12T08:59:35.351Z,22.75
2018-08-12T09:00:35.379Z,22.75
2018-08-12T09:01:35.327Z,22.75
2018-08-12T09:02:35.472Z,22.75
2018-08-12T09:03:35.106Z,22.75
2018-08-12T09:04:35.333Z,22.75
2018-08-12T09:05:35.360Z,23
2018-08-12T09:06:35.358Z,23
2018-08-12T09:07:35.359Z,23
2018-08-12T09:08:36.742Z,23
2018-08-12T09:09:35.346Z,23
2018-08-12T09:10:35.181Z,23
2018-08-12T09:11:35.381Z,23
2018-08-12T09:12:35.133Z,23
2018-08-12T09:13:35.252Z,23
2018-08-12T09:14:35.228Z,23
2018-08-12T09:15:35.283Z,23
2018-08-12T09:16:35.192Z,23
2018-08-12T09:17:35.376Z,23
2018-08-12T09:18:35.168Z,23
2018-08-12T09:19:35.278Z,23
2018-08-12T09:20:35.119Z,23
2018-08-12T09:21:35.120Z,23
2018-08-12T09:22:35.236Z,23
2018-08-12T09:23:35.372Z,23
2018-08-12T09:24:35.298Z,23
2018-08-12T09:25:35.226Z,23
2018-08-12T09:26:35.242Z,23
2018-08-12T09:27:35.347Z,23
2018-08-12T09:28:35.437Z,23
2018-08-12T09:29:35.357Z,23
2018-08-12T09:30:35.163Z,23
2018-08-12T09:31:35.181Z,23
2018-08-12T09:32:35.410Z,23
2018-08-12T09:33:35.371Z,23
2018-08-12T09:34:35.309Z,23
2018-08-12T09:35:35.402Z,23
2018-08-12T09:36:35.342Z,23
2018-08-12T09:37:35.120Z,23.25
2018-08-12T09:38:35.426Z,23
2018-08-12T09:39:35.166Z,23.25
2018-08-12T09:40:35.261Z,23.25
2018-08-12T09:41:35.177Z,23.25
2018-08-12T09:42:35.219Z,23.25
2018-08-12T09:43:35.538Z,23.25
2018-08-12T09:44:35.431Z,23.25
2018-08-12T09:45:35.452Z,23.25
2018-08-12T09:46:35.247Z,23.25
2018-08-12T09:47:35.420Z,23.25
2018-08-12T09:48:35.118Z,23.25
2018-08-12T09:49:35.367Z,23.25
2018-08-12T09:50:35.608Z,23.25
2018-08-12T09:51:36.255Z,23.25
2018-08-12T09:52:35.294Z,23.25
2018-08-12T09:53:35.397Z,23.25
2018-08-12T09:54:35.399Z,23.25
2018-08-12T09:55:35.174Z,23.25
2018-08-12T09:56:35.117Z,23.25
2018-08-12T09:57:35.166Z,23.25
2018-08-12T09:58:35.434Z,23.25
2018-08-12T09:59:35.425Z,23.25
2018-08-12T10:00:35.951Z,23.25
2018-08-12T10:01:35.406Z,23.25
2018-08-12T10:02:35.303Z,23.25
2018-08-12T10:03:35.458Z,23.25
2018-08-12T10:04:35.270Z,23.25
2018-08-12T10:05:35.140Z,23.25
2018-08-12T10:06:35.129Z,23.25
2018-08-12T10:07:35.791Z,23.25
2018-08-12T10:08:35.179Z,23.25
2018-08-12T10:09:35.338Z,23.25
2018-08-12T10:10:35.446Z,23.25
2018-08-12T10:11:35.275Z,23.25
2018-08-12T10:12:35.274Z,23.25
2018-08-12T10:13:35.305Z,23.25
2018-08-12T10:14:35.282Z,23.25
2018-08-12T10:15:35.286Z,23.25
2018-08-12T10:16:35.519Z,23.25
2018-08-12T10:17:35.392Z,23.25
2018-08-12T10:18:35.421Z,23.25
2018-08-12T10:19:35.349Z,23.25
2018-08-12T10:20:35.323Z,23.25
2018-08-12T10:21:35.574Z,23.25
2018-08-12T10:22:35.252Z,23.25
2018-08-12T10:23:35.453Z,23.25
2018-08-12T10:24:35.297Z,23.25
2018-08-12T10:25:35.296Z,23.25
2018-08-12T10:26:35.285Z,23.25
2018-08-12T10:27:35.447Z,23.25
2018-08-12T10:28:35.425Z,23.25
2018-08-12T10:29:35.192Z,23.25
2018-08-12T10:30:35.401Z,23.25
2018-08-12T10:31:35.327Z,23.25
2018-08-12T10:32:35.321Z,23.25
2018-08-12T10:33:35.201Z,23.25
2018-08-12T10:34:35.190Z,23.25
2018-08-12T10:35:35.383Z,23.25
2018-08-12T10:36:35.305Z,23.25
2018-08-12T10:37:35.194Z,23.25
2018-08-12T10:38:35.219Z,23.25
2018-08-12T10:39:35.180Z,23.25
2018-08-12T10:40:35.183Z,23.25
2018-08-12T10:41:35.270Z,23.25
2018-08-12T10:42:35.341Z,23.25
2018-08-12T10:43:35.168Z,23.25
2018-08-12T10:44:35.079Z,23.25
2018-08-12T10:45:35.221Z,23.25
2018-08-12T10:46:35.275Z,23.25
2018-08-12T10:47:35.198Z,23.25
2018-08-12T10:48:35.300Z,23.25
2018-08-12T10:49:35.355Z,23.25
2018-08-12T10:50:35.267Z,23.25
2018-08-12T10:51:35.332Z,23.25
2018-08-12T10:52:35.081Z,23.25
2018-08-12T10:53:35.345Z,23.25
2018-08-12T10:54:35.322Z,23.25
2018-08-12T10:55:35.352Z,23.25
2018-08-12T10:56:35.404Z,23.25
2018-08-12T10:57:35.466Z,23.25
2018-08-12T10:58:35.573Z,23.25
2018-08-12T10:59:35.345Z,23.25
2018-08-12T11:00:35.378Z,23.25
2018-08-12T11:01:35.409Z,23.25
2018-08-12T11:02:35.146Z,23.25
2018-08-12T11:03:35.495Z,23.25
2018-08-12T11:04:35.125Z,23.25
2018-08-12T11:05:35.370Z,23.25
2018-08-12T11:06:35.266Z,23.25
2018-08-12T11:07:35.725Z,23.25
2018-08-12T11:08:35.435Z,23.25
2018-08-12T11:09:35.333Z,23.25
2018-08-12T11:10:35.245Z,23.25
2018-08-12T11:11:35.237Z,23.25
2018-08-12T11:12:35.431Z,23.25
2018-08-12T11:13:35.562Z,23.25
2018-08-12T11:14:35.309Z,23.25
2018-08-12T11:15:35.584Z,23.25
2018-08-12T11:16:35.351Z,23.25
2018-08-12T11:17:35.282Z,23.25
2018-08-12T11:18:35.389Z,23.25
2018-08-12T11:19:35.554Z,23.25
2018-08-12T11:20:35.719Z,23.25
2018-08-12T11:21:35.384Z,23.25
2018-08-12T11:22:35.454Z,23.25
2018-08-12T11:23:35.308Z,23.25
2018-08-12T11:24:35.445Z,23.25
2018-08-12T11:25:35.418Z,23.25
2018-08-12T11:26:35.390Z,23.25
2018-08-12T11:27:35.430Z,23.25
2018-08-12T11:28:35.648Z,23.25
2018-08-12T11:29:35.295Z,23.25
2018-08-12T11:30:35.366Z,23.25
2018-08-12T11:31:35.155Z,23.25
2018-08-12T11:32:35.972Z,23.25
2018-08-12T11:33:35.298Z,23.25
2018-08-12T11:34:35.321Z,23.25
2018-08-12T11:35:35.359Z,23.25
2018-08-12T11:36:35.269Z,23.25
2018-08-12T11:37:35.281Z,23.25
2018-08-12T11:38:35.307Z,23.25
2018-08-12T11:39:35.195Z,23.25
2018-08-12T11:40:35.265Z,23.25
2018-08-12T11:41:35.323Z,23.25
2018-08-12T11:42:35.414Z,23.25
2018-08-12T11:43:35.266Z,23.25
2018-08-12T11:44:35.300Z,23.25
2018-08-12T11:45:35.227Z,23.25
2018-08-12T11:46:35.262Z,23.25
2018-08-12T11:47:35.926Z,23.25
2018-08-12T11:48:35.338Z,23.25
2018-08-12T11:49:35.189Z,23.25
2018-08-12T11:50:35.321Z,23.25
2018-08-12T11:51:35.348Z,23.25
2018-08-12T11:52:35.350Z,23.25
2018-08-12T11:53:35.369Z,23.25
2018-08-12T11:54:35.403Z,23.25
2018-08-12T11:55:35.357Z,23.25
2018-08-12T11:56:35.178Z,23.25
2018-08-12T11:57:35.361Z,23.25
2018-08-12T11:58:35.132Z,23.25
2018-08-12T11:59:35.352Z,23.25
2018-08-12T12:00:35.335Z,23.25
2018-08-12T12:01:35.310Z,23.25
2018-08-12T12:02:35.180Z,23.25
2018-08-12T12:03:35.313Z,23.25
2018-08-12T12:04:35.713Z,23.25
2018-08-12T12:05:35.245Z,23.25
2018-08-12T12:06:35.213Z,23.25
2018-08-12T12:07:35.129Z,23.25
2018-08-12T12:08:35.377Z,23.25
2018-08-12T12:09:35.302Z,23.25
2018-08-12T12:10:35.292Z,23.25
2018-08-12T12:11:35.114Z,23.25
2018-08-12T12:12:35.348Z,23.25
2018-08-12T12:13:35.509Z,23.25
2018-08-12T12:14:35.442Z,23.25
2018-08-12T12:15:35.359Z,23.25
2018-08-12T12:16:35.103Z,23.25
2018-08-12T12:17:35.206Z,23.25
2018-08-12T12:18:35.328Z,23.25
2018-08-12T12:19:35.211Z,23.25
2018-08-12T12:20:35.726Z,23.25
2018-08-12T12:21:35.338Z,23.25
2018-08-12T12:22:35.209Z,23.25
2018-08-12T12:23:35.211Z,23.25
2018-08-12T12:24:35.223Z,23.25
2018-08-12T12:25:35.254Z,23.25
2018-08-12T12:26:35.137Z,23.25
2018-08-12T12:27:35.575Z,23.25
2018-08-12T12:28:35.563Z,23.25
2018-08-12T12:29:35.224Z,23.25
2018-08-12T12:30:35.298Z,23.25
2018-08-12T12:31:35.297Z,23.25
2018-08-12T12:32:35.239Z,23.25
2018-08-12T12:33:35.568Z,23.25
2018-08-12T12:34:35.270Z,23.25
2018-08-12T12:35:35.722Z,23.25
2018-08-12T12:36:35.070Z,23.25
2018-08-12T12:37:35.440Z,23.5
2018-08-12T12:38:35.261Z,23.25
2018-08-12T12:39:36.733Z,23.5
2018-08-12T12:40:35.166Z,23.5
2018-08-12T12:41:35.204Z,23.5
2018-08-12T12:42:35.406Z,23.5
2018-08-12T12:43:35.180Z,23.5
2018-08-12T12:44:35.225Z,23.5
2018-08-12T12:45:35.307Z,23.5
2018-08-12T12:46:35.127Z,23.5
2018-08-12T12:47:35.281Z,23.5
2018-08-12T12:48:35.248Z,23.5
2018-08-12T12:49:35.526Z,23.5
2018-08-12T12:50:35.634Z,23.5
2018-08-12T12:51:35.422Z,23.5
2018-08-12T12:52:35.244Z,23.5
2018-08-12T12:53:35.397Z,23.5
2018-08-12T12:54:35.303Z,23.5
2018-08-12T12:55:35.155Z,23.5
2018-08-12T12:56:35.295Z,23.5
2018-08-12T12:57:35.214Z,23.5
2018-08-12T12:58:35.186Z,23.5
2018-08-12T12:59:35.197Z,23.5
2018-08-12T13:00:35.349Z,23.75
2018-08-12T13:01:35.112Z,23.5
2018-08-12T13:02:35.222Z,23.75
2018-08-12T13:03:35.454Z,23.75
2018-08-12T13:04:35.271Z,23.75
2018-08-12T13:05:35.284Z,23.75
2018-08-12T13:06:35.373Z,23.75
2018-08-12T13:07:35.173Z,23.75
2018-08-12T13:08:35.677Z,23.75